sensor_id;sensor_type;location;lat;lon;timestamp;P1;durP1;ratioP1;P2;durP2;ratioP2
3867;SDS011;1949;48.152;11.528;2023-02-28T00:01:27;3.93;;;1.87;;
3867;SDS011;1949;48.152;11.528;2023-02-28T00:03:53;4.30;;;2.73;;
3867;SDS011;1949;48.152;11.528;2023-02-28T00:06:19;4.77;;;2.43;;
3867;SDS011;1949;48.152;11.528;2023-02-28T00:08:45;9.13;;;3.83;;
3867;SDS011;1949;48.152;11.528;2023-02-28T00:11:13;4.23;;;2.60;;
3867;SDS011;1949;48.152;11.528;2023-02-28T00:13:41;3.73;;;2.40;;
3867;SDS011;1949;48.152;11.528;2023-02-28T00:16:12;3.60;;;1.83;;
3867;SDS011;1949;48.152;11.528;2023-02-28T00:18:40;4.57;;;2.40;;
3867;SDS011;1949;48.152;11.528;2023-02-28T00:23:38;3.03;;;2.33;;
3867;SDS011;1949;48.152;11.528;2023-02-28T00:26:04;3.97;;;1.97;;
3867;SDS011;1949;48.152;11.528;2023-02-28T00:28:30;3.47;;;2.10;;
3867;SDS011;1949;48.152;11.528;2023-02-28T00:30:56;6.33;;;2.20;;
3867;SDS011;1949;48.152;11.528;2023-02-28T00:33:22;4.87;;;2.30;;
3867;SDS011;1949;48.152;11.528;2023-02-28T00:36:02;4.00;;;2.00;;
3867;SDS011;1949;48.152;11.528;2023-02-28T00:38:33;4.13;;;2.13;;
3867;SDS011;1949;48.152;11.528;2023-02-28T00:41:01;3.17;;;2.27;;
3867;SDS011;1949;48.152;11.528;2023-02-28T00:43:30;5.97;;;2.90;;
3867;SDS011;1949;48.152;11.528;2023-02-28T00:46:01;4.17;;;2.50;;
3867;SDS011;1949;48.152;11.528;2023-02-28T00:48:29;3.03;;;2.13;;
3867;SDS011;1949;48.152;11.528;2023-02-28T00:50:55;5.17;;;2.57;;
3867;SDS011;1949;48.152;11.528;2023-02-28T00:53:22;15.83;;;3.00;;
3867;SDS011;1949;48.152;11.528;2023-02-28T00:55:49;7.07;;;4.00;;
3867;SDS011;1949;48.152;11.528;2023-02-28T00:58:15;8.40;;;3.80;;
3867;SDS011;1949;48.152;11.528;2023-02-28T01:00:46;13.10;;;4.70;;
3867;SDS011;1949;48.152;11.528;2023-02-28T01:06:03;8.60;;;3.40;;
3867;SDS011;1949;48.152;11.528;2023-02-28T01:08:33;10.17;;;4.87;;
3867;SDS011;1949;48.152;11.528;2023-02-28T01:11:10;10.67;;;4.30;;
3867;SDS011;1949;48.152;11.528;2023-02-28T01:13:42;7.63;;;3.90;;
3867;SDS011;1949;48.152;11.528;2023-02-28T01:16:11;8.90;;;4.30;;
3867;SDS011;1949;48.152;11.528;2023-02-28T01:18:41;8.03;;;4.40;;
3867;SDS011;1949;48.152;11.528;2023-02-28T01:21:09;7.57;;;3.50;;
3867;SDS011;1949;48.152;11.528;2023-02-28T01:23:40;9.03;;;3.53;;
3867;SDS011;1949;48.152;11.528;2023-02-28T01:26:18;10.33;;;5.10;;
3867;SDS011;1949;48.152;11.528;2023-02-28T01:28:46;5.50;;;3.23;;
3867;SDS011;1949;48.152;11.528;2023-02-28T01:31:13;9.23;;;4.23;;
3867;SDS011;1949;48.152;11.528;2023-02-28T01:33:39;5.87;;;3.47;;
3867;SDS011;1949;48.152;11.528;2023-02-28T01:36:07;6.00;;;2.80;;
3867;SDS011;1949;48.152;11.528;2023-02-28T01:38:37;9.13;;;3.83;;
3867;SDS011;1949;48.152;11.528;2023-02-28T01:41:04;7.90;;;3.70;;
3867;SDS011;1949;48.152;11.528;2023-02-28T01:43:32;8.57;;;3.57;;
3867;SDS011;1949;48.152;11.528;2023-02-28T01:46:09;5.80;;;3.30;;
3867;SDS011;1949;48.152;11.528;2023-02-28T01:48:36;6.70;;;3.30;;
3867;SDS011;1949;48.152;11.528;2023-02-28T01:51:11;5.70;;;2.80;;
3867;SDS011;1949;48.152;11.528;2023-02-28T01:53:47;6.67;;;3.27;;
3867;SDS011;1949;48.152;11.528;2023-02-28T01:56:23;8.67;;;3.90;;
3867;SDS011;1949;48.152;11.528;2023-02-28T01:58:52;6.97;;;3.47;;
3867;SDS011;1949;48.152;11.528;2023-02-28T02:01:21;8.63;;;3.83;;
3867;SDS011;1949;48.152;11.528;2023-02-28T02:03:51;8.30;;;3.60;;
3867;SDS011;1949;48.152;11.528;2023-02-28T02:06:29;7.50;;;3.20;;
3867;SDS011;1949;48.152;11.528;2023-02-28T02:09:07;5.47;;;2.83;;
3867;SDS011;1949;48.152;11.528;2023-02-28T02:11:33;6.17;;;3.50;;
3867;SDS011;1949;48.152;11.528;2023-02-28T02:16:57;6.67;;;3.40;;
3867;SDS011;1949;48.152;11.528;2023-02-28T02:41:28;3.40;;;2.17;;
3867;SDS011;1949;48.152;11.528;2023-02-28T02:47:08;5.70;;;2.73;;
3867;SDS011;1949;48.152;11.528;2023-02-28T02:52:18;5.00;;;2.90;;
3867;SDS011;1949;48.152;11.528;2023-02-28T02:54:49;6.20;;;3.00;;
3867;SDS011;1949;48.152;11.528;2023-02-28T02:57:27;3.70;;;2.90;;
3867;SDS011;1949;48.152;11.528;2023-02-28T03:00:00;8.03;;;3.03;;
3867;SDS011;1949;48.152;11.528;2023-02-28T03:02:30;4.97;;;2.53;;
3867;SDS011;1949;48.152;11.528;2023-02-28T03:05:04;5.40;;;2.60;;
3867;SDS011;1949;48.152;11.528;2023-02-28T03:07:45;3.70;;;2.17;;
3867;SDS011;1949;48.152;11.528;2023-02-28T03:10:27;3.50;;;2.47;;
3867;SDS011;1949;48.152;11.528;2023-02-28T03:26:13;13.83;;;2.17;;
3867;SDS011;1949;48.152;11.528;2023-02-28T03:31:48;7.10;;;2.80;;
3867;SDS011;1949;48.152;11.528;2023-02-28T03:34:28;6.80;;;3.13;;
3867;SDS011;1949;48.152;11.528;2023-02-28T03:36:59;4.57;;;2.87;;
3867;SDS011;1949;48.152;11.528;2023-02-28T03:42:23;4.13;;;2.70;;
3867;SDS011;1949;48.152;11.528;2023-02-28T03:44:58;5.70;;;2.80;;
3867;SDS011;1949;48.152;11.528;2023-02-28T03:47:29;6.23;;;3.10;;
3867;SDS011;1949;48.152;11.528;2023-02-28T03:52:55;6.10;;;3.27;;
3867;SDS011;1949;48.152;11.528;2023-02-28T03:55:38;5.63;;;2.70;;
3867;SDS011;1949;48.152;11.528;2023-02-28T04:01:07;9.57;;;3.90;;
3867;SDS011;1949;48.152;11.528;2023-02-28T04:03:38;8.57;;;4.70;;
3867;SDS011;1949;48.152;11.528;2023-02-28T04:06:06;10.17;;;4.90;;
3867;SDS011;1949;48.152;11.528;2023-02-28T04:08:39;8.30;;;4.30;;
3867;SDS011;1949;48.152;11.528;2023-02-28T04:11:53;10.33;;;3.90;;
3867;SDS011;1949;48.152;11.528;2023-02-28T04:19:10;7.60;;;3.10;;
3867;SDS011;1949;48.152;11.528;2023-02-28T04:21:47;7.47;;;3.27;;
3867;SDS011;1949;48.152;11.528;2023-02-28T04:24:18;3.70;;;2.80;;
3867;SDS011;1949;48.152;11.528;2023-02-28T04:26:47;8.23;;;3.30;;
3867;SDS011;1949;48.152;11.528;2023-02-28T04:29:18;6.00;;;3.13;;
3867;SDS011;1949;48.152;11.528;2023-02-28T04:31:52;5.47;;;3.50;;
3867;SDS011;1949;48.152;11.528;2023-02-28T04:34:21;5.43;;;3.37;;
3867;SDS011;1949;48.152;11.528;2023-02-28T04:36:48;5.10;;;3.10;;
3867;SDS011;1949;48.152;11.528;2023-02-28T04:39:16;8.37;;;3.43;;
3867;SDS011;1949;48.152;11.528;2023-02-28T04:41:43;6.90;;;3.80;;
3867;SDS011;1949;48.152;11.528;2023-02-28T04:44:10;4.73;;;3.17;;
3867;SDS011;1949;48.152;11.528;2023-02-28T04:46:36;7.40;;;3.60;;
3867;SDS011;1949;48.152;11.528;2023-02-28T04:49:02;7.07;;;3.40;;
3867;SDS011;1949;48.152;11.528;2023-02-28T04:51:27;7.40;;;3.30;;
3867;SDS011;1949;48.152;11.528;2023-02-28T04:56:25;8.07;;;4.00;;
3867;SDS011;1949;48.152;11.528;2023-02-28T04:58:52;12.77;;;4.70;;
3867;SDS011;1949;48.152;11.528;2023-02-28T05:01:25;7.30;;;3.50;;
3867;SDS011;1949;48.152;11.528;2023-02-28T05:03:59;5.60;;;3.37;;
3867;SDS011;1949;48.152;11.528;2023-02-28T05:06:28;5.40;;;2.90;;
3867;SDS011;1949;48.152;11.528;2023-02-28T05:08:57;6.40;;;3.50;;
3867;SDS011;1949;48.152;11.528;2023-02-28T05:11:29;6.57;;;3.63;;
3867;SDS011;1949;48.152;11.528;2023-02-28T05:14:12;10.03;;;4.17;;
3867;SDS011;1949;48.152;11.528;2023-02-28T05:16:42;9.33;;;4.40;;
3867;SDS011;1949;48.152;11.528;2023-02-28T05:19:09;8.37;;;4.57;;
3867;SDS011;1949;48.152;11.528;2023-02-28T05:21:36;10.90;;;3.97;;
3867;SDS011;1949;48.152;11.528;2023-02-28T05:24:05;6.80;;;4.40;;
3867;SDS011;1949;48.152;11.528;2023-02-28T05:26:39;6.30;;;3.90;;
3867;SDS011;1949;48.152;11.528;2023-02-28T05:29:06;13.53;;;4.03;;
3867;SDS011;1949;48.152;11.528;2023-02-28T05:31:38;11.50;;;4.67;;
3867;SDS011;1949;48.152;11.528;2023-02-28T05:34:03;17.33;;;4.80;;
3867;SDS011;1949;48.152;11.528;2023-02-28T05:36:32;12.87;;;5.17;;
3867;SDS011;1949;48.152;11.528;2023-02-28T05:39:00;12.97;;;5.53;;
3867;SDS011;1949;48.152;11.528;2023-02-28T05:41:28;7.23;;;4.97;;
3867;SDS011;1949;48.152;11.528;2023-02-28T05:44:00;9.97;;;5.00;;
3867;SDS011;1949;48.152;11.528;2023-02-28T05:46:27;12.03;;;5.27;;
3867;SDS011;1949;48.152;11.528;2023-02-28T05:49:03;27.03;;;5.93;;
3867;SDS011;1949;48.152;11.528;2023-02-28T05:51:30;13.67;;;6.47;;
3867;SDS011;1949;48.152;11.528;2023-02-28T05:54:02;29.20;;;10.53;;
3867;SDS011;1949;48.152;11.528;2023-02-28T05:56:28;32.80;;;12.50;;
3867;SDS011;1949;48.152;11.528;2023-02-28T06:01:47;16.67;;;7.30;;
3867;SDS011;1949;48.152;11.528;2023-02-28T06:04:24;19.57;;;6.67;;
3867;SDS011;1949;48.152;11.528;2023-02-28T06:06:58;17.50;;;8.80;;
3867;SDS011;1949;48.152;11.528;2023-02-28T06:09:26;23.63;;;7.77;;
3867;SDS011;1949;48.152;11.528;2023-02-28T06:11:52;30.10;;;11.90;;
3867;SDS011;1949;48.152;11.528;2023-02-28T06:16:49;32.60;;;12.57;;
3867;SDS011;1949;48.152;11.528;2023-02-28T06:19:15;37.40;;;14.93;;
3867;SDS011;1949;48.152;11.528;2023-02-28T06:21:42;29.40;;;10.60;;
3867;SDS011;1949;48.152;11.528;2023-02-28T06:24:10;36.00;;;15.00;;
3867;SDS011;1949;48.152;11.528;2023-02-28T06:26:46;31.67;;;12.80;;
3867;SDS011;1949;48.152;11.528;2023-02-28T06:29:12;17.37;;;9.50;;
3867;SDS011;1949;48.152;11.528;2023-02-28T06:31:42;23.97;;;9.77;;
3867;SDS011;1949;48.152;11.528;2023-02-28T06:36:40;28.90;;;10.63;;
3867;SDS011;1949;48.152;11.528;2023-02-28T06:39:13;46.33;;;17.90;;
3867;SDS011;1949;48.152;11.528;2023-02-28T06:41:39;50.67;;;18.80;;
3867;SDS011;1949;48.152;11.528;2023-02-28T06:44:13;46.53;;;16.40;;
3867;SDS011;1949;48.152;11.528;2023-02-28T06:46:46;25.30;;;10.97;;
3867;SDS011;1949;48.152;11.528;2023-02-28T06:49:13;24.33;;;9.70;;
3867;SDS011;1949;48.152;11.528;2023-02-28T06:51:42;15.70;;;7.60;;
3867;SDS011;1949;48.152;11.528;2023-02-28T06:54:10;19.23;;;7.50;;
3867;SDS011;1949;48.152;11.528;2023-02-28T06:56:36;20.70;;;9.23;;
3867;SDS011;1949;48.152;11.528;2023-02-28T06:59:04;22.83;;;8.90;;
3867;SDS011;1949;48.152;11.528;2023-02-28T07:01:30;25.03;;;11.27;;
3867;SDS011;1949;48.152;11.528;2023-02-28T07:04:01;17.90;;;7.87;;
3867;SDS011;1949;48.152;11.528;2023-02-28T07:06:27;17.90;;;7.80;;
3867;SDS011;1949;48.152;11.528;2023-02-28T07:08:59;15.37;;;8.30;;
3867;SDS011;1949;48.152;11.528;2023-02-28T07:11:26;19.50;;;8.90;;
3867;SDS011;1949;48.152;11.528;2023-02-28T07:13:58;17.27;;;7.97;;
3867;SDS011;1949;48.152;11.528;2023-02-28T07:16:24;21.50;;;9.77;;
3867;SDS011;1949;48.152;11.528;2023-02-28T07:18:54;23.53;;;8.20;;
3867;SDS011;1949;48.152;11.528;2023-02-28T07:21:21;14.80;;;7.67;;
3867;SDS011;1949;48.152;11.528;2023-02-28T07:23:47;17.07;;;8.30;;
3867;SDS011;1949;48.152;11.528;2023-02-28T07:26:15;16.23;;;7.50;;
3867;SDS011;1949;48.152;11.528;2023-02-28T07:28:42;17.70;;;9.10;;
3867;SDS011;1949;48.152;11.528;2023-02-28T07:31:11;48.53;;;11.30;;
3867;SDS011;1949;48.152;11.528;2023-02-28T07:33:40;68.20;;;10.90;;
3867;SDS011;1949;48.152;11.528;2023-02-28T07:36:07;78.53;;;14.03;;
3867;SDS011;1949;48.152;11.528;2023-02-28T07:38:41;35.30;;;15.13;;
3867;SDS011;1949;48.152;11.528;2023-02-28T07:41:09;33.47;;;12.70;;
3867;SDS011;1949;48.152;11.528;2023-02-28T07:43:34;32.67;;;13.13;;
3867;SDS011;1949;48.152;11.528;2023-02-28T07:46:03;34.93;;;14.83;;
3867;SDS011;1949;48.152;11.528;2023-02-28T07:48:31;41.33;;;17.23;;
3867;SDS011;1949;48.152;11.528;2023-02-28T07:50:57;32.97;;;12.77;;
3867;SDS011;1949;48.152;11.528;2023-02-28T07:53:26;34.93;;;14.90;;
3867;SDS011;1949;48.152;11.528;2023-02-28T07:55:56;50.63;;;19.33;;
3867;SDS011;1949;48.152;11.528;2023-02-28T07:58:24;20.40;;;9.40;;
3867;SDS011;1949;48.152;11.528;2023-02-28T08:00:51;27.87;;;10.23;;
3867;SDS011;1949;48.152;11.528;2023-02-28T08:03:18;26.00;;;10.20;;
3867;SDS011;1949;48.152;11.528;2023-02-28T08:05:47;32.60;;;10.47;;
3867;SDS011;1949;48.152;11.528;2023-02-28T08:08:15;24.27;;;9.53;;
3867;SDS011;1949;48.152;11.528;2023-02-28T08:10:42;23.13;;;9.80;;
3867;SDS011;1949;48.152;11.528;2023-02-28T08:13:08;22.27;;;9.90;;
3867;SDS011;1949;48.152;11.528;2023-02-28T08:15:33;21.73;;;8.70;;
3867;SDS011;1949;48.152;11.528;2023-02-28T08:18:00;24.40;;;9.90;;
3867;SDS011;1949;48.152;11.528;2023-02-28T08:20:26;33.20;;;12.93;;
3867;SDS011;1949;48.152;11.528;2023-02-28T08:22:52;25.60;;;9.70;;
3867;SDS011;1949;48.152;11.528;2023-02-28T08:25:18;22.00;;;9.37;;
3867;SDS011;1949;48.152;11.528;2023-02-28T08:27:45;17.13;;;8.97;;
3867;SDS011;1949;48.152;11.528;2023-02-28T08:30:11;31.40;;;12.43;;
3867;SDS011;1949;48.152;11.528;2023-02-28T08:32:38;24.73;;;10.00;;
3867;SDS011;1949;48.152;11.528;2023-02-28T08:35:06;23.17;;;10.00;;
3867;SDS011;1949;48.152;11.528;2023-02-28T08:37:32;33.03;;;11.07;;
3867;SDS011;1949;48.152;11.528;2023-02-28T08:39:59;18.47;;;8.80;;
3867;SDS011;1949;48.152;11.528;2023-02-28T08:42:25;27.40;;;11.83;;
3867;SDS011;1949;48.152;11.528;2023-02-28T08:47:20;26.07;;;11.10;;
3867;SDS011;1949;48.152;11.528;2023-02-28T08:49:45;41.33;;;11.00;;
3867;SDS011;1949;48.152;11.528;2023-02-28T08:52:11;24.53;;;10.10;;
3867;SDS011;1949;48.152;11.528;2023-02-28T08:54:37;27.00;;;11.87;;
3867;SDS011;1949;48.152;11.528;2023-02-28T08:57:03;35.77;;;11.73;;
3867;SDS011;1949;48.152;11.528;2023-02-28T08:59:29;26.07;;;10.27;;
3867;SDS011;1949;48.152;11.528;2023-02-28T09:02:01;23.30;;;10.93;;
3867;SDS011;1949;48.152;11.528;2023-02-28T09:04:27;22.80;;;9.70;;
3867;SDS011;1949;48.152;11.528;2023-02-28T09:06:55;21.97;;;10.53;;
3867;SDS011;1949;48.152;11.528;2023-02-28T09:09:22;34.30;;;11.00;;
3867;SDS011;1949;48.152;11.528;2023-02-28T09:11:49;26.97;;;11.40;;
3867;SDS011;1949;48.152;11.528;2023-02-28T09:14:15;28.97;;;11.77;;
3867;SDS011;1949;48.152;11.528;2023-02-28T09:16:42;30.37;;;11.83;;
3867;SDS011;1949;48.152;11.528;2023-02-28T09:19:10;25.13;;;12.23;;
3867;SDS011;1949;48.152;11.528;2023-02-28T09:21:37;26.97;;;11.67;;
3867;SDS011;1949;48.152;11.528;2023-02-28T09:24:02;14.83;;;7.83;;
3867;SDS011;1949;48.152;11.528;2023-02-28T09:26:28;18.37;;;8.70;;
3867;SDS011;1949;48.152;11.528;2023-02-28T09:28:55;25.73;;;9.77;;
3867;SDS011;1949;48.152;11.528;2023-02-28T09:31:27;12.83;;;7.70;;
3867;SDS011;1949;48.152;11.528;2023-02-28T09:33:54;18.77;;;8.17;;
3867;SDS011;1949;48.152;11.528;2023-02-28T09:36:24;22.53;;;10.00;;
3867;SDS011;1949;48.152;11.528;2023-02-28T09:38:52;18.27;;;9.13;;
3867;SDS011;1949;48.152;11.528;2023-02-28T09:41:22;23.43;;;9.90;;
3867;SDS011;1949;48.152;11.528;2023-02-28T09:43:53;29.83;;;11.23;;
3867;SDS011;1949;48.152;11.528;2023-02-28T09:46:36;29.83;;;10.00;;
3867;SDS011;1949;48.152;11.528;2023-02-28T09:49:15;21.80;;;9.87;;
3867;SDS011;1949;48.152;11.528;2023-02-28T09:51:58;20.70;;;8.03;;
3867;SDS011;1949;48.152;11.528;2023-02-28T09:54:35;27.27;;;12.13;;
3867;SDS011;1949;48.152;11.528;2023-02-28T09:59:54;27.80;;;10.60;;
3867;SDS011;1949;48.152;11.528;2023-02-28T10:05:38;25.07;;;10.73;;
3867;SDS011;1949;48.152;11.528;2023-02-28T10:08:14;27.40;;;12.40;;
3867;SDS011;1949;48.152;11.528;2023-02-28T10:10:47;25.33;;;11.20;;
3867;SDS011;1949;48.152;11.528;2023-02-28T10:13:35;30.40;;;12.77;;
3867;SDS011;1949;48.152;11.528;2023-02-28T10:17:08;38.60;;;12.40;;
3867;SDS011;1949;48.152;11.528;2023-02-28T10:19:23;31.70;;;13.00;;
3867;SDS011;1949;48.152;11.528;2023-02-28T10:27:00;36.53;;;15.47;;
3867;SDS011;1949;48.152;11.528;2023-02-28T10:29:35;34.20;;;13.33;;
3867;SDS011;1949;48.152;11.528;2023-02-28T10:32:01;39.13;;;13.90;;
3867;SDS011;1949;48.152;11.528;2023-02-28T10:34:34;27.27;;;11.60;;
3867;SDS011;1949;48.152;11.528;2023-02-28T10:37:01;26.80;;;11.57;;
3867;SDS011;1949;48.152;11.528;2023-02-28T10:39:43;30.23;;;14.10;;
3867;SDS011;1949;48.152;11.528;2023-02-28T10:42:26;29.27;;;11.90;;
3867;SDS011;1949;48.152;11.528;2023-02-28T10:50:52;28.50;;;12.20;;
3867;SDS011;1949;48.152;11.528;2023-02-28T11:01:45;27.90;;;11.87;;
3867;SDS011;1949;48.152;11.528;2023-02-28T11:04:34;27.73;;;11.80;;
3867;SDS011;1949;48.152;11.528;2023-02-28T11:07:04;22.33;;;10.13;;
3867;SDS011;1949;48.152;11.528;2023-02-28T11:12:23;31.40;;;12.40;;
3867;SDS011;1949;48.152;11.528;2023-02-28T11:15:00;33.53;;;13.80;;
3867;SDS011;1949;48.152;11.528;2023-02-28T11:17:32;31.87;;;11.30;;
3867;SDS011;1949;48.152;11.528;2023-02-28T11:20:02;26.50;;;11.70;;
3867;SDS011;1949;48.152;11.528;2023-02-28T11:22:36;31.20;;;13.53;;
3867;SDS011;1949;48.152;11.528;2023-02-28T11:25:10;32.60;;;13.23;;
3867;SDS011;1949;48.152;11.528;2023-02-28T11:27:50;28.37;;;11.60;;
3867;SDS011;1949;48.152;11.528;2023-02-28T11:30:28;26.53;;;13.17;;
3867;SDS011;1949;48.152;11.528;2023-02-28T11:32:56;27.73;;;12.37;;
3867;SDS011;1949;48.152;11.528;2023-02-28T11:35:36;20.63;;;9.23;;
3867;SDS011;1949;48.152;11.528;2023-02-28T11:38:12;28.20;;;11.87;;
3867;SDS011;1949;48.152;11.528;2023-02-28T11:46:02;29.27;;;12.53;;
3867;SDS011;1949;48.152;11.528;2023-02-28T11:48:43;30.30;;;12.50;;
3867;SDS011;1949;48.152;11.528;2023-02-28T12:13:37;30.03;;;13.23;;
3867;SDS011;1949;48.152;11.528;2023-02-28T12:19:13;23.27;;;11.20;;
3867;SDS011;1949;48.152;11.528;2023-02-28T12:22:02;20.57;;;10.87;;
3867;SDS011;1949;48.152;11.528;2023-02-28T12:27:44;26.43;;;11.23;;
3867;SDS011;1949;48.152;11.528;2023-02-28T12:32:56;21.33;;;10.43;;
3867;SDS011;1949;48.152;11.528;2023-02-28T12:38:49;21.70;;;9.63;;
3867;SDS011;1949;48.152;11.528;2023-02-28T12:41:14;28.87;;;13.30;;
3867;SDS011;1949;48.152;11.528;2023-02-28T12:43:44;37.60;;;13.87;;
3867;SDS011;1949;48.152;11.528;2023-02-28T12:46:19;20.23;;;9.60;;
3867;SDS011;1949;48.152;11.528;2023-02-28T12:48:52;24.67;;;11.63;;
3867;SDS011;1949;48.152;11.528;2023-02-28T12:51:21;22.93;;;10.33;;
3867;SDS011;1949;48.152;11.528;2023-02-28T13:10:59;22.67;;;10.37;;
3867;SDS011;1949;48.152;11.528;2023-02-28T13:13:29;24.77;;;10.20;;
3867;SDS011;1949;48.152;11.528;2023-02-28T13:16:00;24.83;;;11.40;;
3867;SDS011;1949;48.152;11.528;2023-02-28T13:18:37;23.13;;;10.60;;
3867;SDS011;1949;48.152;11.528;2023-02-28T13:21:44;25.93;;;10.47;;
3867;SDS011;1949;48.152;11.528;2023-02-28T13:24:08;13.80;;;7.70;;
3867;SDS011;1949;48.152;11.528;2023-02-28T13:34:32;14.47;;;7.17;;
3867;SDS011;1949;48.152;11.528;2023-02-28T13:39:57;28.67;;;11.00;;
3867;SDS011;1949;48.152;11.528;2023-02-28T13:42:33;25.50;;;10.30;;
3867;SDS011;1949;48.152;11.528;2023-02-28T13:47:41;24.07;;;10.97;;
3867;SDS011;1949;48.152;11.528;2023-02-28T13:50:19;25.60;;;12.07;;
3867;SDS011;1949;48.152;11.528;2023-02-28T13:58:46;21.53;;;10.93;;
3867;SDS011;1949;48.152;11.528;2023-02-28T14:06:59;25.63;;;11.27;;
3867;SDS011;1949;48.152;11.528;2023-02-28T14:20:57;19.30;;;9.30;;
3867;SDS011;1949;48.152;11.528;2023-02-28T14:26:33;23.90;;;10.23;;
3867;SDS011;1949;48.152;11.528;2023-02-28T14:29:30;19.20;;;8.83;;
3867;SDS011;1949;48.152;11.528;2023-02-28T14:32:32;18.83;;;8.13;;
3867;SDS011;1949;48.152;11.528;2023-02-28T14:38:20;22.77;;;8.40;;
3867;SDS011;1949;48.152;11.528;2023-02-28T14:40:49;21.90;;;8.67;;
3867;SDS011;1949;48.152;11.528;2023-02-28T14:43:22;18.27;;;8.97;;
3867;SDS011;1949;48.152;11.528;2023-02-28T14:48:25;15.17;;;7.40;;
3867;SDS011;1949;48.152;11.528;2023-02-28T14:50:56;13.13;;;7.30;;
3867;SDS011;1949;48.152;11.528;2023-02-28T14:53:25;13.87;;;7.50;;
3867;SDS011;1949;48.152;11.528;2023-02-28T14:55:55;13.07;;;7.20;;
3867;SDS011;1949;48.152;11.528;2023-02-28T14:58:24;18.00;;;7.50;;
3867;SDS011;1949;48.152;11.528;2023-02-28T15:00:54;13.37;;;7.80;;
3867;SDS011;1949;48.152;11.528;2023-02-28T15:05:56;20.83;;;7.30;;
3867;SDS011;1949;48.152;11.528;2023-02-28T15:08:35;15.40;;;7.90;;
3867;SDS011;1949;48.152;11.528;2023-02-28T15:11:07;18.43;;;8.93;;
3867;SDS011;1949;48.152;11.528;2023-02-28T15:13:48;28.03;;;9.63;;
3867;SDS011;1949;48.152;11.528;2023-02-28T15:16:37;26.10;;;9.70;;
3867;SDS011;1949;48.152;11.528;2023-02-28T15:21:40;34.07;;;11.83;;
3867;SDS011;1949;48.152;11.528;2023-02-28T15:24:14;29.90;;;12.90;;
3867;SDS011;1949;48.152;11.528;2023-02-28T15:26:59;20.70;;;9.83;;
3867;SDS011;1949;48.152;11.528;2023-02-28T15:29:28;16.63;;;8.60;;
3867;SDS011;1949;48.152;11.528;2023-02-28T15:38:14;30.67;;;13.50;;
3867;SDS011;1949;48.152;11.528;2023-02-28T15:40:56;19.00;;;9.40;;
3867;SDS011;1949;48.152;11.528;2023-02-28T15:43:37;20.27;;;10.17;;
3867;SDS011;1949;48.152;11.528;2023-02-28T15:46:15;33.00;;;13.33;;
3867;SDS011;1949;48.152;11.528;2023-02-28T15:49:00;28.03;;;12.50;;
3867;SDS011;1949;48.152;11.528;2023-02-28T15:51:38;35.27;;;13.90;;
3867;SDS011;1949;48.152;11.528;2023-02-28T15:54:08;33.33;;;15.37;;
3867;SDS011;1949;48.152;11.528;2023-02-28T15:56:51;35.73;;;16.50;;
3867;SDS011;1949;48.152;11.528;2023-02-28T15:59:27;28.37;;;14.27;;
3867;SDS011;1949;48.152;11.528;2023-02-28T16:07:29;28.63;;;12.60;;
3867;SDS011;1949;48.152;11.528;2023-02-28T16:09:55;34.00;;;12.97;;
3867;SDS011;1949;48.152;11.528;2023-02-28T16:12:28;42.53;;;17.47;;
3867;SDS011;1949;48.152;11.528;2023-02-28T16:14:57;41.90;;;17.13;;
3867;SDS011;1949;48.152;11.528;2023-02-28T16:17:31;36.23;;;15.60;;
3867;SDS011;1949;48.152;11.528;2023-02-28T16:20:42;26.80;;;12.90;;
3867;SDS011;1949;48.152;11.528;2023-02-28T16:22:51;36.97;;;16.87;;
3867;SDS011;1949;48.152;11.528;2023-02-28T16:25:18;42.00;;;15.40;;
3867;SDS011;1949;48.152;11.528;2023-02-28T16:32:58;51.90;;;21.80;;
3867;SDS011;1949;48.152;11.528;2023-02-28T16:35:24;51.73;;;20.73;;
3867;SDS011;1949;48.152;11.528;2023-02-28T16:37:52;43.37;;;17.70;;
3867;SDS011;1949;48.152;11.528;2023-02-28T16:40:22;50.40;;;17.97;;
3867;SDS011;1949;48.152;11.528;2023-02-28T16:42:54;37.00;;;15.97;;
3867;SDS011;1949;48.152;11.528;2023-02-28T16:45:26;31.30;;;13.80;;
3867;SDS011;1949;48.152;11.528;2023-02-28T16:47:53;27.63;;;12.87;;
3867;SDS011;1949;48.152;11.528;2023-02-28T16:50:23;25.00;;;12.63;;
3867;SDS011;1949;48.152;11.528;2023-02-28T16:52:53;27.60;;;10.57;;
3867;SDS011;1949;48.152;11.528;2023-02-28T16:55:24;31.73;;;12.10;;
3867;SDS011;1949;48.152;11.528;2023-02-28T16:58:00;17.50;;;8.70;;
3867;SDS011;1949;48.152;11.528;2023-02-28T17:00:29;40.20;;;15.73;;
3867;SDS011;1949;48.152;11.528;2023-02-28T17:05:29;43.37;;;17.33;;
3867;SDS011;1949;48.152;11.528;2023-02-28T17:08:03;38.57;;;14.47;;
3867;SDS011;1949;48.152;11.528;2023-02-28T17:10:33;40.90;;;17.83;;
3867;SDS011;1949;48.152;11.528;2023-02-28T17:13:01;50.90;;;18.20;;
3867;SDS011;1949;48.152;11.528;2023-02-28T17:15:27;34.40;;;13.93;;
3867;SDS011;1949;48.152;11.528;2023-02-28T17:20:28;27.73;;;11.30;;
3867;SDS011;1949;48.152;11.528;2023-02-28T17:22:54;41.43;;;16.57;;
3867;SDS011;1949;48.152;11.528;2023-02-28T17:25:25;28.73;;;11.30;;
3867;SDS011;1949;48.152;11.528;2023-02-28T17:27:50;43.83;;;16.37;;
3867;SDS011;1949;48.152;11.528;2023-02-28T17:38:03;22.30;;;10.73;;
3867;SDS011;1949;48.152;11.528;2023-02-28T17:40:30;20.50;;;10.50;;
3867;SDS011;1949;48.152;11.528;2023-02-28T17:42:56;25.60;;;10.70;;
3867;SDS011;1949;48.152;11.528;2023-02-28T17:45:23;26.83;;;11.10;;
3867;SDS011;1949;48.152;11.528;2023-02-28T17:50:33;20.80;;;9.03;;
3867;SDS011;1949;48.152;11.528;2023-02-28T17:55:35;31.53;;;13.17;;
3867;SDS011;1949;48.152;11.528;2023-02-28T17:58:09;34.00;;;13.37;;
3867;SDS011;1949;48.152;11.528;2023-02-28T18:00:40;27.80;;;10.87;;
3867;SDS011;1949;48.152;11.528;2023-02-28T18:03:06;38.43;;;15.77;;
3867;SDS011;1949;48.152;11.528;2023-02-28T18:05:34;24.67;;;10.47;;
3867;SDS011;1949;48.152;11.528;2023-02-28T18:10:38;18.20;;;9.07;;
3867;SDS011;1949;48.152;11.528;2023-02-28T18:15:34;22.40;;;8.73;;
3867;SDS011;1949;48.152;11.528;2023-02-28T18:20:30;24.60;;;10.90;;
3867;SDS011;1949;48.152;11.528;2023-02-28T18:23:06;25.10;;;10.93;;
3867;SDS011;1949;48.152;11.528;2023-02-28T18:28:02;27.43;;;12.97;;
3867;SDS011;1949;48.152;11.528;2023-02-28T18:34:02;22.37;;;9.87;;
3867;SDS011;1949;48.152;11.528;2023-02-28T18:36:35;27.43;;;10.73;;
3867;SDS011;1949;48.152;11.528;2023-02-28T18:39:01;24.97;;;9.87;;
3867;SDS011;1949;48.152;11.528;2023-02-28T18:41:35;29.37;;;13.23;;
3867;SDS011;1949;48.152;11.528;2023-02-28T18:44:01;53.30;;;20.60;;
3867;SDS011;1949;48.152;11.528;2023-02-28T18:46:41;34.53;;;13.47;;
3867;SDS011;1949;48.152;11.528;2023-02-28T18:49:22;22.57;;;9.20;;
3867;SDS011;1949;48.152;11.528;2023-02-28T18:51:47;21.87;;;10.23;;
3867;SDS011;1949;48.152;11.528;2023-02-28T18:54:25;19.33;;;8.70;;
3867;SDS011;1949;48.152;11.528;2023-02-28T18:56:53;32.53;;;13.93;;
3867;SDS011;1949;48.152;11.528;2023-02-28T19:01:50;31.13;;;12.23;;
3867;SDS011;1949;48.152;11.528;2023-02-28T19:04:19;21.20;;;10.60;;
3867;SDS011;1949;48.152;11.528;2023-02-28T19:06:45;21.80;;;10.87;;
3867;SDS011;1949;48.152;11.528;2023-02-28T19:09:14;28.10;;;13.13;;
3867;SDS011;1949;48.152;11.528;2023-02-28T19:14:29;26.30;;;11.30;;
3867;SDS011;1949;48.152;11.528;2023-02-28T19:16:57;29.10;;;13.57;;
3867;SDS011;1949;48.152;11.528;2023-02-28T19:21:55;27.90;;;14.23;;
3867;SDS011;1949;48.152;11.528;2023-02-28T19:24:33;33.20;;;14.67;;
3867;SDS011;1949;48.152;11.528;2023-02-28T19:26:59;29.33;;;13.50;;
3867;SDS011;1949;48.152;11.528;2023-02-28T19:31:59;46.43;;;17.77;;
3867;SDS011;1949;48.152;11.528;2023-02-28T19:34:37;35.50;;;15.73;;
3867;SDS011;1949;48.152;11.528;2023-02-28T19:37:10;32.03;;;14.07;;
3867;SDS011;1949;48.152;11.528;2023-02-28T19:39:38;36.43;;;16.63;;
3867;SDS011;1949;48.152;11.528;2023-02-28T19:42:10;22.77;;;10.00;;